Time;durP1;ratioP1;P1;durP2;ratioP2;P2;SDS_P1;SDS_P2;PMS_P1;PMS_P2;Temp;Humidity;BMP_temperature;BMP_pressure;BME280_temperature;BME280_humidity;BME280_pressure;Samples;Min_cycle;Max_cycle;Signal;HPM_P1;HPM_P2
2021/03/01 00:00:29;;;;;;;12.45;5.38;;;5.40;92.10;;;;;;5005065;28;20109;-72
2021/03/01 00:02:55;;;;;;;11.23;5.45;;;5.40;92.00;;;;;;5028609;28;20044;-71
2021/03/01 00:05:21;;;;;;;11.57;6.00;;;5.40;91.90;;;;;;5031065;28;20018;-71
2021/03/01 00:07:47;;;;;;;12.23;5.55;;;5.20;92.20;;;;;;5011851;28;20030;-71
2021/03/01 00:10:14;;;;;;;11.40;5.80;;;5.10;92.50;;;;;;5029765;28;20025;-71
2021/03/01 00:12:41;;;;;;;15.23;5.93;;;5.10;92.60;;;;;;5018129;28;20074;-71
2021/03/01 00:15:09;;;;;;;12.57;6.63;;;5.00;92.90;;;;;;5024589;28;20433;-71
2021/03/01 00:17:35;;;;;;;12.85;5.97;;;5.20;92.50;;;;;;5015601;28;20100;-71
2021/03/01 00:20:01;;;;;;;10.95;5.40;;;5.20;92.40;;;;;;5011977;28;20408;-71
2021/03/01 00:22:27;;;;;;;13.35;5.72;;;5.40;92.10;;;;;;5019498;28;20028;-71
2021/03/01 00:24:52;;;;;;;10.50;5.57;;;5.40;92.00;;;;;;5016143;28;20034;-71
2021/03/01 00:27:18;;;;;;;11.70;5.85;;;5.50;92.10;;;;;;5029716;28;20033;-71
2021/03/01 00:29:44;;;;;;;12.90;5.45;;;5.60;92.00;;;;;;5031339;28;20091;-71
2021/03/01 00:32:10;;;;;;;12.60;6.15;;;5.40;92.00;;;;;;5029303;28;20484;-71
2021/03/01 00:34:35;;;;;;;9.90;5.10;;;5.40;92.00;;;;;;5015652;28;20690;-71
2021/03/01 00:37:01;;;;;;;13.00;5.97;;;5.40;91.90;;;;;;5031213;28;20396;-71
2021/03/01 00:39:27;;;;;;;9.32;5.10;;;5.40;91.90;;;;;;5028845;28;20403;-72
2021/03/01 00:41:53;;;;;;;11.40;5.50;;;5.30;92.50;;;;;;5011592;28;20080;-71
2021/03/01 00:44:18;;;;;;;15.25;6.00;;;5.20;92.30;;;;;;5025752;28;20100;-71
2021/03/01 00:46:44;;;;;;;11.68;5.90;;;5.10;92.70;;;;;;5031031;28;20060;-71
2021/03/01 00:49:10;;;;;;;10.88;5.38;;;5.10;92.60;;;;;;5030366;28;20033;-71
2021/03/01 00:51:36;;;;;;;9.75;5.38;;;4.80;92.90;;;;;;5029914;28;20048;-71
2021/03/01 00:54:01;;;;;;;12.55;5.55;;;4.70;93.20;;;;;;5019442;28;20464;-72
2021/03/01 00:56:27;;;;;;;11.63;5.57;;;4.90;92.90;;;;;;5024295;28;20108;-71
2021/03/01 00:58:53;;;;;;;9.45;4.70;;;5.20;92.60;;;;;;5027840;28;20025;-71
2021/03/01 01:01:18;;;;;;;15.82;5.70;;;5.00;92.70;;;;;;5029139;28;20041;-71
2021/03/01 01:03:44;;;;;;;11.63;5.13;;;5.00;92.70;;;;;;5024564;28;20036;-71
2021/03/01 01:06:10;;;;;;;10.57;5.40;;;4.80;93.00;;;;;;5026173;28;20061;-71
2021/03/01 01:08:35;;;;;;;9.80;4.18;;;4.90;93.00;;;;;;5030670;28;20025;-72
2021/03/01 01:11:01;;;;;;;10.77;5.00;;;4.70;93.20;;;;;;5017528;28;20032;-71
2021/03/01 01:13:27;;;;;;;12.75;5.68;;;4.60;93.70;;;;;;5021981;28;20069;-72
2021/03/01 01:15:53;;;;;;;14.00;5.03;;;4.40;93.80;;;;;;5029996;28;20068;-71
2021/03/01 01:18:18;;;;;;;8.48;4.85;;;4.60;93.70;;;;;;5011762;28;20569;-71
2021/03/01 01:20:44;;;;;;;15.55;6.55;;;4.70;93.50;;;;;;5010993;28;20052;-71
2021/03/01 01:23:10;;;;;;;11.57;5.18;;;5.20;92.80;;;;;;5024088;28;20037;-72
2021/03/01 01:25:36;;;;;;;9.90;4.63;;;5.00;92.90;;;;;;5015326;28;20034;-71
2021/03/01 01:28:01;;;;;;;13.48;6.57;;;4.90;93.00;;;;;;5011006;28;20026;-71
2021/03/01 01:30:27;;;;;;;12.35;6.05;;;4.90;93.30;;;;;;5010840;28;20030;-71
2021/03/01 01:32:53;;;;;;;10.82;5.82;;;4.80;93.30;;;;;;5010446;28;20042;-71
2021/03/01 01:35:19;;;;;;;10.73;5.50;;;4.80;93.40;;;;;;5019289;28;20148;-71
2021/03/01 01:37:46;;;;;;;12.25;5.70;;;4.80;93.60;;;;;;5010270;28;20369;-72
2021/03/01 01:40:14;;;;;;;11.05;5.43;;;4.80;93.50;;;;;;5010973;28;20034;-71
2021/03/01 01:42:41;;;;;;;11.18;5.72;;;4.70;93.30;;;;;;5010892;28;20046;-71
2021/03/01 01:45:13;;;;;;;16.65;6.00;;;4.50;93.70;;;;;;5011076;28;20026;-71
2021/03/01 01:47:41;;;;;;;10.00;4.75;;;4.50;93.90;;;;;;5010419;28;20022;-71
2021/03/01 01:50:08;;;;;;;10.02;5.30;;;4.60;93.80;;;;;;5010988;28;20176;-71
2021/03/01 01:52:34;;;;;;;11.18;5.18;;;4.60;93.60;;;;;;5029590;28;20037;-71
2021/03/01 01:55:01;;;;;;;10.98;5.35;;;4.70;93.40;;;;;;5028569;28;20615;-71
2021/03/01 01:57:28;;;;;;;12.05;5.65;;;4.60;93.60;;;;;;5010298;28;20044;-71
2021/03/01 01:59:54;;;;;;;10.27;4.95;;;4.70;93.60;;;;;;5012097;28;20495;-71
2021/03/01 02:02:20;;;;;;;8.55;4.18;;;4.60;93.50;;;;;;5014351;28;20034;-71
2021/03/01 02:04:48;;;;;;;8.98;4.53;;;4.50;93.60;;;;;;5014404;28;20030;-71
2021/03/01 02:07:58;;;;;;;8.77;4.43;;;4.50;93.70;;;;;;5015418;28;20496;-71
2021/03/01 02:10:48;;;;;;;13.48;4.72;;;4.50;93.50;;;;;;5033175;28;20033;-72
2021/03/01 02:13:51;;;;;;;11.23;5.07;;;4.60;93.30;;;;;;5033669;28;20069;-71
2021/03/01 02:16:23;;;;;;;12.38;4.30;;;4.70;93.30;;;;;;5021207;28;20408;-71
2021/03/01 02:18:49;;;;;;;7.97;4.28;;;4.70;93.10;;;;;;5033830;28;20053;-71
2021/03/01 02:21:15;;;;;;;7.00;4.15;;;4.60;93.10;;;;;;5033807;28;20053;-71
2021/03/01 02:23:42;;;;;;;10.52;4.40;;;4.40;93.20;;;;;;5032791;28;20032;-71
2021/03/01 02:26:26;;;;;;;12.57;4.38;;;4.60;93.10;;;;;;5028497;28;20028;-71
2021/03/01 02:29:02;;;;;;;13.90;4.72;;;4.50;93.20;;;;;;5014001;28;20119;-71
2021/03/01 02:31:30;;;;;;;9.00;3.63;;;4.30;93.60;;;;;;5022701;28;20053;-72
2021/03/01 02:33:59;;;;;;;9.25;4.20;;;4.40;93.50;;;;;;5032928;28;20172;-71
2021/03/01 02:36:28;;;;;;;8.43;4.03;;;4.40;93.40;;;;;;5013770;28;20041;-71
2021/03/01 02:38:55;;;;;;;9.50;4.25;;;4.30;93.50;;;;;;5013778;28;20025;-71
2021/03/01 02:41:22;;;;;;;8.07;4.60;;;4.20;93.60;;;;;;5026005;28;20053;-71
2021/03/01 02:43:49;;;;;;;9.43;4.28;;;4.40;93.40;;;;;;5031196;28;20041;-71
2021/03/01 02:46:17;;;;;;;9.98;5.25;;;4.20;93.50;;;;;;5015936;28;20056;-71
2021/03/01 02:48:43;;;;;;;9.40;4.15;;;4.00;93.90;;;;;;5013695;28;20485;-71
2021/03/01 02:51:10;;;;;;;9.27;4.18;;;4.10;93.80;;;;;;5013439;28;20026;-71
2021/03/01 02:53:37;;;;;;;9.27;4.50;;;3.90;94.60;;;;;;5013600;28;20100;-71
2021/03/01 02:56:03;;;;;;;8.85;4.00;;;3.90;94.40;;;;;;5013610;28;20109;-71
2021/03/01 02:58:31;;;;;;;8.95;3.92;;;3.90;94.40;;;;;;5016398;28;20476;-72
2021/03/01 03:01:02;;;;;;;8.50;3.80;;;4.00;93.90;;;;;;5033196;28;20391;-71
2021/03/01 03:03:29;;;;;;;8.52;4.30;;;4.00;93.90;;;;;;5032656;28;20079;-71
2021/03/01 03:05:55;;;;;;;12.32;3.78;;;4.10;93.90;;;;;;5032911;28;20047;-71
2021/03/01 03:08:23;;;;;;;7.72;3.72;;;4.10;93.70;;;;;;5021304;28;20030;-71
2021/03/01 03:10:51;;;;;;;9.27;3.55;;;4.20;93.50;;;;;;5023970;28;20030;-71
2021/03/01 03:13:19;;;;;;;7.07;3.67;;;4.00;93.70;;;;;;5012761;28;20543;-71
2021/03/01 03:15:49;;;;;;;9.00;3.70;;;4.10;93.50;;;;;;5018104;28;20045;-71
2021/03/01 03:18:17;;;;;;;6.10;3.17;;;3.90;94.00;;;;;;5025987;28;20030;-71
2021/03/01 03:20:43;;;;;;;6.13;3.42;;;4.00;93.60;;;;;;5046703;28;20033;-71
2021/03/01 03:23:08;;;;;;;11.95;3.90;;;4.00;93.90;;;;;;5032580;28;20026;-71
2021/03/01 03:25:35;;;;;;;8.52;3.45;;;3.80;94.10;;;;;;5032069;28;20391;-71
2021/03/01 03:28:05;;;;;;;9.30;4.30;;;3.90;93.70;;;;;;5027686;28;20101;-71
2021/03/01 03:30:31;;;;;;;5.88;3.47;;;4.10;93.30;;;;;;5012495;28;20037;-71
2021/03/01 03:32:56;;;;;;;7.65;3.10;;;3.90;93.50;;;;;;5019364;28;20039;-71
2021/03/01 03:35:23;;;;;;;6.30;3.40;;;4.10;93.10;;;;;;5031987;28;20049;-71
2021/03/01 03:37:57;;;;;;;7.70;3.47;;;4.20;92.90;;;;;;5031922;28;20052;-71
2021/03/01 03:40:25;;;;;;;8.77;4.32;;;4.10;93.00;;;;;;5012451;28;20034;-71
2021/03/01 03:42:51;;;;;;;5.85;2.85;;;4.20;92.70;;;;;;5012500;28;20121;-71
2021/03/01 03:45:18;;;;;;;6.30;2.58;;;4.10;92.80;;;;;;5012345;28;20476;-71
2021/03/01 03:47:47;;;;;;;7.88;3.50;;;4.00;93.00;;;;;;5012256;28;20041;-72
2021/03/01 03:50:14;;;;;;;9.95;3.75;;;4.00;93.00;;;;;;5024000;28;20038;-71
2021/03/01 03:52:43;;;;;;;5.95;3.08;;;4.10;92.60;;;;;;5032022;28;20392;-71
2021/03/01 03:55:17;;;;;;;7.32;2.90;;;4.20;92.30;;;;;;5031880;28;20503;-71
2021/03/01 03:58:06;;;;;;;8.32;3.17;;;4.10;92.20;;;;;;5032055;28;20040;-71
2021/03/01 04:00:35;;;;;;;6.57;2.88;;;4.30;91.80;;;;;;5012833;28;20066;-71
2021/03/01 04:03:10;;;;;;;6.03;3.13;;;3.90;92.50;;;;;;5011437;28;20033;-72
2021/03/01 04:05:39;;;;;;;8.27;3.20;;;3.80;92.90;;;;;;5024763;28;20399;-71
2021/03/01 04:08:08;;;;;;;6.70;3.10;;;3.90;92.70;;;;;;5007051;28;20052;-71
2021/03/01 04:10:35;;;;;;;6.43;2.40;;;4.00;92.50;;;;;;5017621;28;20116;-72
2021/03/01 04:13:02;;;;;;;6.28;3.10;;;4.10;92.00;;;;;;5024128;28;20037;-71
2021/03/01 04:15:30;;;;;;;5.68;2.45;;;4.50;91.10;;;;;;5023541;28;20431;-72
2021/03/01 04:17:57;;;;;;;4.70;2.50;;;4.40;91.00;;;;;;5022840;28;20478;-73
2021/03/01 04:20:23;;;;;;;5.15;2.63;;;4.10;91.50;;;;;;5020981;28;20036;-71
2021/03/01 04:22:52;;;;;;;4.95;2.35;;;4.20;91.40;;;;;;5023027;28;20026;-71
2021/03/01 04:25:20;;;;;;;3.83;1.92;;;4.40;90.80;;;;;;5004721;28;20148;-71
2021/03/01 04:27:46;;;;;;;9.25;2.55;;;4.30;90.80;;;;;;5003870;28;20044;-72
2021/03/01 04:30:15;;;;;;;9.15;2.78;;;4.20;90.70;;;;;;5009617;28;20952;-71
2021/03/01 04:32:44;;;;;;;6.43;2.95;;;4.20;91.00;;;;;;5024107;28;20041;-72
2021/03/01 04:35:13;;;;;;;5.38;2.90;;;4.20;90.60;;;;;;5023686;28;20045;-72
2021/03/01 04:37:39;;;;;;;5.53;1.77;;;4.40;90.40;;;;;;5023194;28;20036;-71
2021/03/01 04:40:05;;;;;;;5.90;2.47;;;4.30;90.30;;;;;;5020705;28;20026;-71
2021/03/01 04:42:32;;;;;;;5.18;2.42;;;4.40;90.20;;;;;;5003251;28;20030;-72
2021/03/01 04:44:59;;;;;;;6.03;2.20;;;4.40;89.90;;;;;;5003799;28;20018;-71
2021/03/01 04:47:29;;;;;;;5.78;2.17;;;4.20;89.90;;;;;;5003700;28;20057;-72
2021/03/01 04:49:56;;;;;;;7.35;2.92;;;4.20;90.20;;;;;;5003932;28;20037;-72
2021/03/01 04:52:23;;;;;;;5.78;2.38;;;4.30;89.90;;;;;;5020798;28;20040;-71
2021/03/01 04:54:49;;;;;;;6.35;2.22;;;4.30;89.60;;;;;;5023598;28;20068;-72
2021/03/01 04:57:16;;;;;;;6.07;2.22;;;4.30;89.70;;;;;;5021516;28;20030;-71
2021/03/01 04:59:43;;;;;;;7.20;2.47;;;4.40;89.10;;;;;;5004203;28;20106;-71
2021/03/01 05:02:10;;;;;;;6.38;2.30;;;4.30;89.50;;;;;;5015967;28;20055;-72
2021/03/01 05:04:36;;;;;;;8.77;2.45;;;4.10;90.10;;;;;;5023338;28;20030;-71
2021/03/01 05:07:05;;;;;;;6.32;2.13;;;4.00;90.20;;;;;;5021765;28;20033;-72
2021/03/01 05:09:37;;;;;;;4.78;1.73;;;4.20;89.70;;;;;;5021888;28;20480;-72
2021/03/01 05:12:02;;;;;;;4.53;2.22;;;4.40;88.80;;;;;;5022592;28;20047;-72
2021/03/01 05:14:28;;;;;;;3.83;2.00;;;4.30;88.90;;;;;;5019648;28;20500;-71
2021/03/01 05:16:54;;;;;;;10.98;2.67;;;4.40;88.30;;;;;;5004090;28;20037;-71
2021/03/01 05:19:20;;;;;;;8.10;2.40;;;4.20;89.50;;;;;;5003617;28;20026;-71
2021/03/01 05:21:45;;;;;;;3.72;2.08;;;4.20;88.90;;;;;;5003305;28;20810;-71
2021/03/01 05:24:11;;;;;;;8.93;2.75;;;3.90;90.00;;;;;;5012337;28;20379;-71
2021/03/01 05:26:37;;;;;;;6.20;2.00;;;3.40;90.90;;;;;;5020478;28;20623;-71
2021/03/01 05:29:04;;;;;;;8.95;2.60;;;3.40;91.10;;;;;;5022728;28;20033;-71
2021/03/01 05:31:30;;;;;;;7.03;1.70;;;3.40;90.80;;;;;;5017543;28;20048;-73
2021/03/01 05:33:56;;;;;;;5.05;1.73;;;3.40;90.90;;;;;;5007690;28;20053;-71
2021/03/01 05:36:21;;;;;;;5.63;2.20;;;3.40;90.90;;;;;;5026424;28;20350;-71
2021/03/01 05:38:47;;;;;;;8.25;2.08;;;3.70;90.50;;;;;;5026785;28;20037;-71
2021/03/01 05:41:17;;;;;;;7.05;2.03;;;3.70;90.30;;;;;;5022508;28;20029;-71
2021/03/01 05:43:43;;;;;;;5.75;2.40;;;3.80;90.00;;;;;;5007479;28;20544;-72
2021/03/01 05:46:09;;;;;;;4.95;2.20;;;3.30;90.90;;;;;;5026791;28;20176;-71
2021/03/01 05:48:35;;;;;;;5.03;2.05;;;3.10;91.50;;;;;;5022447;28;20080;-71
2021/03/01 05:51:03;;;;;;;6.53;1.92;;;3.10;91.30;;;;;;5026897;28;20029;-71
2021/03/01 05:53:31;;;;;;;3.65;1.70;;;2.90;91.60;;;;;;5026849;28;20037;-71
2021/03/01 05:56:00;;;;;;;5.72;2.08;;;3.00;91.60;;;;;;5006718;28;20041;-71
2021/03/01 05:58:27;;;;;;;4.50;1.90;;;2.90;91.90;;;;;;5006907;28;20040;-71
2021/03/01 06:00:58;;;;;;;5.50;1.67;;;3.00;91.50;;;;;;5007334;28;20927;-71
2021/03/01 06:03:26;;;;;;;3.53;1.67;;;2.70;92.00;;;;;;5006666;28;20079;-71
2021/03/01 06:05:53;;;;;;;6.43;2.00;;;2.80;91.90;;;;;;5011839;28;20045;-71
2021/03/01 06:08:19;;;;;;;4.45;1.85;;;2.90;92.00;;;;;;5006892;28;20033;-71
2021/03/01 06:10:45;;;;;;;5.38;1.77;;;2.80;92.10;;;;;;5006843;28;20032;-71
2021/03/01 06:13:10;;;;;;;2.80;1.38;;;2.60;92.90;;;;;;5006865;28;20420;-71
2021/03/01 06:15:40;;;;;;;5.05;2.15;;;2.60;92.40;;;;;;5019721;28;20120;-71
2021/03/01 06:18:10;;;;;;;5.93;2.22;;;2.70;92.10;;;;;;5010513;28;20117;-71
2021/03/01 06:20:37;;;;;;;3.90;2.17;;;2.70;92.20;;;;;;5006905;28;20042;-71
2021/03/01 06:23:03;;;;;;;6.70;2.45;;;2.70;92.50;;;;;;5011642;28;20041;-71
2021/03/01 06:25:30;;;;;;;4.35;2.05;;;2.60;92.70;;;;;;5006258;28;20173;-72
2021/03/01 06:27:57;;;;;;;5.68;2.55;;;2.70;92.70;;;;;;5006675;28;20033;-71
2021/03/01 06:30:27;;;;;;;4.35;1.90;;;2.60;93.00;;;;;;5006173;28;20029;-71
2021/03/01 06:33:18;;;;;;;5.05;1.83;;;2.80;92.30;;;;;;5005919;28;20184;-71
2021/03/01 06:35:43;;;;;;;4.22;1.48;;;2.80;92.20;;;;;;5012098;28;20096;-73
2021/03/01 06:38:28;;;;;;;6.82;1.65;;;2.70;92.50;;;;;;5016722;28;20415;-72
2021/03/01 06:41:19;;;;;;;11.70;2.53;;;2.90;92.00;;;;;;5022877;28;20387;-71
2021/03/01 06:44:00;;;;;;;6.22;1.70;;;2.80;92.20;;;;;;5009211;28;20033;-71
2021/03/01 06:46:29;;;;;;;6.25;1.80;;;3.10;91.50;;;;;;5013577;28;20137;-72
2021/03/01 06:48:55;;;;;;;3.80;1.60;;;3.20;91.10;;;;;;5021367;28;20036;-73
2021/03/01 06:51:21;;;;;;;6.53;2.15;;;3.20;91.20;;;;;;5024148;28;20101;-70
2021/03/01 06:54:00;;;;;;;5.93;1.80;;;3.30;91.20;;;;;;5006568;28;20053;-71
2021/03/01 06:56:39;;;;;;;7.25;1.80;;;3.60;90.40;;;;;;5007888;28;20037;-71
2021/03/01 06:59:16;;;;;;;3.63;1.80;;;3.60;90.30;;;;;;5006156;28;20045;-70
2021/03/01 07:01:49;;;;;;;3.55;1.92;;;3.80;90.00;;;;;;5005855;28;20026;-69
2021/03/01 07:04:22;;;;;;;5.95;1.98;;;3.60;90.20;;;;;;5013923;28;20439;-71
2021/03/01 07:06:49;;;;;;;4.18;1.70;;;3.60;90.40;;;;;;5017623;28;20022;-70
2021/03/01 07:09:19;;;;;;;4.38;1.95;;;3.70;91.00;;;;;;5004773;28;20037;-71
2021/03/01 07:11:45;;;;;;;6.90;2.25;;;3.60;90.20;;;;;;5005508;28;20018;-71
2021/03/01 07:14:14;;;;;;;5.43;2.28;;;3.80;89.90;;;;;;5012863;28;20083;-71
2021/03/01 07:16:43;;;;;;;4.15;2.05;;;3.50;90.60;;;;;;5022315;28;20120;-70
2021/03/01 07:19:21;;;;;;;7.72;2.25;;;3.70;90.20;;;;;;5018243;28;20592;-70
2021/03/01 07:21:51;;;;;;;4.05;1.85;;;3.60;90.50;;;;;;5025219;28;20029;-71
2021/03/01 07:24:19;;;;;;;3.83;1.60;;;3.70;90.40;;;;;;5004687;28;20462;-72
2021/03/01 07:26:45;;;;;;;3.60;1.52;;;3.80;90.00;;;;;;5013301;28;20057;-71
2021/03/01 07:29:17;;;;;;;3.55;1.80;;;4.10;88.30;;;;;;5006996;28;20091;-71
2021/03/01 07:31:50;;;;;;;6.20;1.90;;;4.10;88.50;;;;;;5014528;28;20030;-71
2021/03/01 07:34:17;;;;;;;13.32;3.38;;;4.20;88.60;;;;;;5011452;28;20140;-72
2021/03/01 07:36:43;;;;;;;4.72;2.60;;;4.10;88.90;;;;;;5012975;28;20037;-71
2021/03/01 07:39:10;;;;;;;4.63;2.25;;;4.20;88.20;;;;;;5010121;28;20018;-71
2021/03/01 07:41:37;;;;;;;7.22;2.17;;;4.00;90.20;;;;;;5016002;28;20029;-71
2021/03/01 07:44:05;;;;;;;3.63;1.73;;;4.00;89.50;;;;;;5011378;28;20122;-71
2021/03/01 07:46:33;;;;;;;5.85;1.63;;;3.80;90.30;;;;;;5005281;28;20034;-71
2021/03/01 07:48:58;;;;;;;5.82;1.55;;;3.80;90.30;;;;;;5015042;28;20045;-71
2021/03/01 07:51:46;;;;;;;5.40;2.35;;;3.90;90.30;;;;;;5011908;28;20025;-72
2021/03/01 07:54:13;;;;;;;4.75;1.95;;;3.80;90.80;;;;;;5027948;28;20060;-72
2021/03/01 07:56:39;;;;;;;5.72;2.72;;;3.70;91.20;;;;;;5010567;28;20092;-71
2021/03/01 07:59:10;;;;;;;7.78;2.17;;;3.90;90.30;;;;;;5010988;28;20103;-72
2021/03/01 08:01:36;;;;;;;3.63;1.65;;;4.00;90.30;;;;;;5014920;28;20566;-71
2021/03/01 08:04:03;;;;;;;6.28;2.35;;;4.10;89.60;;;;;;5011567;28;20080;-71
2021/03/01 08:06:57;;;;;;;5.07;1.88;;;4.10;89.50;;;;;;5011117;28;20030;-72
2021/03/01 08:09:47;;;;;;;26.65;13.75;;;4.10;90.00;;;;;;5010807;28;20488;-71
2021/03/01 08:12:36;;;;;;;21.05;10.82;;;4.20;90.30;;;;;;5012806;28;20354;-71
2021/03/01 08:15:04;;;;;;;8.82;4.13;;;4.20;90.20;;;;;;5002193;28;20405;-71
2021/03/01 08:17:30;;;;;;;7.28;3.08;;;4.20;90.30;;;;;;5007871;28;20037;-71
2021/03/01 08:19:57;;;;;;;8.52;3.72;;;4.40;89.10;;;;;;5007103;28;20022;-71
2021/03/01 08:22:23;;;;;;;6.95;3.40;;;4.50;89.00;;;;;;5007685;28;20030;-72
2021/03/01 08:24:57;;;;;;;9.68;2.45;;;4.60;90.20;;;;;;5005435;28;20041;-71
2021/03/01 08:27:25;;;;;;;12.65;5.93;;;4.60;89.40;;;;;;5009268;28;20108;-71
2021/03/01 08:30:15;;;;;;;24.27;12.43;;;4.70;88.70;;;;;;5014609;28;20025;-71
2021/03/01 08:32:41;;;;;;;53.63;25.30;;;4.80;88.60;;;;;;5016064;28;20108;-71
2021/03/01 08:35:23;;;;;;;36.50;21.70;;;5.00;86.10;;;;;;5014749;28;20684;-72
2021/03/01 08:37:50;;;;;;;30.83;16.10;;;5.10;86.80;;;;;;5012333;28;20030;-72
2021/03/01 08:40:20;;;;;;;27.77;13.13;;;5.20;86.20;;;;;;5012998;28;20030;-71
2021/03/01 08:42:57;;;;;;;12.50;6.60;;;5.10;85.80;;;;;;5012484;28;20480;-72
2021/03/01 08:45:40;;;;;;;6.97;2.60;;;5.10;85.00;;;;;;5007194;28;20032;-72
2021/03/01 08:48:08;;;;;;;3.90;1.77;;;5.10;86.70;;;;;;5005582;28;20426;-71
2021/03/01 08:50:39;;;;;;;9.00;3.80;;;5.10;84.90;;;;;;5023121;28;20033;-71
2021/03/01 08:53:05;;;;;;;6.78;2.88;;;5.10;84.90;;;;;;5019320;28;20041;-71
2021/03/01 08:55:33;;;;;;;13.68;2.33;;;5.30;84.80;;;;;;5018327;28;20913;-70
2021/03/01 08:58:10;;;;;;;7.25;2.78;;;5.30;85.20;;;;;;5014145;28;20137;-71
2021/03/01 09:00:59;;;;;;;11.80;6.15;;;5.30;83.80;;;;;;5007888;28;20058;-71
2021/03/01 09:03:34;;;;;;;5.72;3.60;;;5.40;83.40;;;;;;5006988;28;20038;-72
2021/03/01 09:06:12;;;;;;;13.80;6.63;;;5.60;82.40;;;;;;5010892;28;20051;-72
2021/03/01 09:08:42;;;;;;;29.38;14.15;;;5.60;83.00;;;;;;5010648;28;20057;-70
2021/03/01 09:11:16;;;;;;;12.05;4.38;;;5.80;83.80;;;;;;5010836;28;20354;-71
2021/03/01 09:13:43;;;;;;;7.57;3.55;;;5.90;85.10;;;;;;5018584;28;20808;-72
2021/03/01 09:16:12;;;;;;;6.28;2.50;;;5.90;86.20;;;;;;5013345;28;20878;-71
2021/03/01 09:18:40;;;;;;;14.38;6.32;;;5.80;84.90;;;;;;5013441;28;20045;-71
2021/03/01 09:21:07;;;;;;;6.03;2.95;;;5.80;85.00;;;;;;5013778;28;20033;-70
2021/03/01 09:23:46;;;;;;;5.03;2.80;;;5.80;85.40;;;;;;5015121;28;20032;-70
2021/03/01 09:26:37;;;;;;;4.07;1.92;;;5.90;85.00;;;;;;5009514;28;20029;-71
2021/03/01 09:29:20;;;;;;;4.28;2.00;;;6.00;84.20;;;;;;5013646;28;20030;-71
2021/03/01 09:31:54;;;;;;;6.75;2.20;;;6.00;84.10;;;;;;5010912;28;20033;-70
2021/03/01 09:34:22;;;;;;;11.57;4.75;;;6.00;83.70;;;;;;5019670;28;20081;-71
2021/03/01 09:36:48;;;;;;;9.80;3.00;;;6.10;85.10;;;;;;5017005;28;20041;-70
2021/03/01 09:39:27;;;;;;;7.15;2.22;;;6.20;84.40;;;;;;5015770;28;20036;-70
2021/03/01 09:41:54;;;;;;;17.15;3.35;;;6.30;84.00;;;;;;5004853;28;20037;-71
2021/03/01 09:44:36;;;;;;;8.05;2.00;;;6.50;84.50;;;;;;5015466;28;20121;-71
2021/03/01 09:47:03;;;;;;;3.40;1.75;;;6.70;83.60;;;;;;5015587;28;20021;-71
2021/03/01 09:49:31;;;;;;;9.05;2.83;;;6.60;82.80;;;;;;5017471;28;20039;-71
2021/03/01 09:51:57;;;;;;;12.13;4.82;;;6.70;83.80;;;;;;5022088;28;20956;-71
2021/03/01 09:54:43;;;;;;;8.18;3.08;;;6.90;82.90;;;;;;5020963;28;20123;-70
2021/03/01 09:57:09;;;;;;;5.13;2.50;;;6.80;81.70;;;;;;5015639;28;20129;-71
2021/03/01 09:59:39;;;;;;;11.25;4.65;;;6.80;81.70;;;;;;5019379;28;20042;-71
2021/03/01 10:02:14;;;;;;;11.40;4.93;;;7.20;82.40;;;;;;5010017;28;20500;-71
2021/03/01 10:04:41;;;;;;;5.78;2.58;;;7.30;81.80;;;;;;5016156;28;20480;-71
2021/03/01 10:07:20;;;;;;;7.35;2.35;;;7.20;82.10;;;;;;5012672;28;20029;-71
2021/03/01 10:09:47;;;;;;;7.68;2.35;;;7.20;81.80;;;;;;5016175;28;20029;-70
2021/03/01 10:12:14;;;;;;;8.88;2.53;;;7.20;81.00;;;;;;5020854;28;20025;-70
2021/03/01 10:14:40;;;;;;;4.60;1.92;;;7.30;81.60;;;;;;5008599;28;20038;-71
2021/03/01 10:17:33;;;;;;;7.80;3.45;;;7.40;81.30;;;;;;5009919;28;20018;-71
2021/03/01 10:20:03;;;;;;;5.75;2.30;;;7.50;81.50;;;;;;5010229;28;20065;-71
2021/03/01 10:22:29;;;;;;;5.80;2.63;;;7.60;80.20;;;;;;5024048;28;20171;-72
2021/03/01 10:24:57;;;;;;;10.15;3.17;;;7.70;81.10;;;;;;5023155;28;20112;-72
2021/03/01 10:27:36;;;;;;;8.80;2.67;;;7.90;79.60;;;;;;5014298;28;20148;-71
2021/03/01 10:30:05;;;;;;;6.85;2.55;;;8.20;79.60;;;;;;5010904;28;20431;-71
2021/03/01 10:32:30;;;;;;;6.40;2.53;;;8.10;78.10;;;;;;5014665;28;20609;-72
2021/03/01 10:34:56;;;;;;;8.68;2.55;;;8.00;78.50;;;;;;5016341;28;20049;-72
2021/03/01 10:37:25;;;;;;;8.25;1.88;;;8.40;79.30;;;;;;5010184;28;20021;-71
2021/03/01 10:39:51;;;;;;;5.20;2.17;;;8.50;77.10;;;;;;5008521;28;20033;-72
2021/03/01 10:42:22;;;;;;;4.60;2.10;;;8.40;77.00;;;;;;5011665;28;20036;-71
2021/03/01 10:45:02;;;;;;;7.72;2.63;;;8.30;77.10;;;;;;5007150;28;20022;-71
2021/03/01 10:47:33;;;;;;;4.30;1.75;;;8.30;77.50;;;;;;5009318;28;20018;-71
2021/03/01 10:50:04;;;;;;;10.07;2.03;;;8.80;76.60;;;;;;5014874;28;20478;-72
2021/03/01 10:52:30;;;;;;;4.75;2.20;;;9.00;77.30;;;;;;5006635;28;20108;-72
2021/03/01 10:54:57;;;;;;;6.47;2.28;;;9.00;77.20;;;;;;5017352;28;20033;-71
2021/03/01 10:57:23;;;;;;;3.13;1.67;;;9.10;77.90;;;;;;5011105;28;20034;-70
2021/03/01 10:59:54;;;;;;;5.00;1.80;;;9.00;75.20;;;;;;5038009;28;20152;-71
2021/03/01 11:02:20;;;;;;;5.80;1.95;;;9.10;75.50;;;;;;5026006;28;20361;-70
2021/03/01 11:04:46;;;;;;;8.13;2.15;;;9.30;77.10;;;;;;5026064;28;20079;-72
2021/03/01 11:07:12;;;;;;;6.10;2.50;;;9.40;75.50;;;;;;5026738;28;20021;-71
2021/03/01 11:09:37;;;;;;;3.75;1.70;;;9.50;75.90;;;;;;5019042;28;20033;-70
2021/03/01 11:12:04;;;;;;;7.95;4.35;;;10.00;74.90;;;;;;5011234;28;20034;-70
2021/03/01 11:14:30;;;;;;;6.07;2.28;;;9.90;73.50;;;;;;5006220;28;20443;-71
2021/03/01 11:16:57;;;;;;;8.85;2.92;;;9.70;72.60;;;;;;5006148;28;20037;-71
2021/03/01 11:19:23;;;;;;;6.85;1.75;;;9.80;74.10;;;;;;5006405;28;20607;-70
2021/03/01 11:21:49;;;;;;;4.57;1.92;;;9.80;72.70;;;;;;5014422;28;20033;-72
2021/03/01 11:24:17;;;;;;;6.68;2.10;;;10.10;73.70;;;;;;5025676;28;20037;-72
2021/03/01 11:26:43;;;;;;;4.43;1.92;;;10.50;73.50;;;;;;5024827;28;20033;-70
2021/03/01 11:29:09;;;;;;;7.38;2.22;;;10.50;73.10;;;;;;5024080;28;20480;-71
2021/03/01 11:31:34;;;;;;;5.47;1.70;;;10.60;72.20;;;;;;5023559;28;20045;-70
2021/03/01 11:34:02;;;;;;;4.70;1.70;;;10.80;73.00;;;;;;5024411;28;20057;-71
2021/03/01 11:36:28;;;;;;;6.18;1.90;;;10.80;71.70;;;;;;5025995;28;20028;-70
2021/03/01 11:38:54;;;;;;;3.92;2.00;;;10.80;71.80;;;;;;5025311;28;20104;-70
2021/03/01 11:41:20;;;;;;;4.72;1.83;;;10.90;71.60;;;;;;5024917;28;20538;-71
2021/03/01 11:43:47;;;;;;;4.28;1.70;;;10.80;71.00;;;;;;5025473;28;20042;-70
2021/03/01 11:46:13;;;;;;;4.35;2.15;;;11.10;71.20;;;;;;5022486;28;20616;-72
2021/03/01 11:48:39;;;;;;;5.10;2.38;;;11.10;69.70;;;;;;5025292;28;20049;-71
2021/03/01 11:51:04;;;;;;;4.30;1.58;;;11.50;70.30;;;;;;5025391;28;20025;-70
2021/03/01 11:53:30;;;;;;;9.65;3.70;;;11.60;69.10;;;;;;5025273;28;20029;-71
2021/03/01 11:55:56;;;;;;;6.00;2.80;;;11.80;68.90;;;;;;5024268;28;20452;-72
2021/03/01 11:58:22;;;;;;;11.93;4.63;;;11.90;68.80;;;;;;5024067;28;20029;-72
2021/03/01 12:00:47;;;;;;;5.82;2.03;;;12.00;69.70;;;;;;5024782;28;20036;-70
2021/03/01 12:03:13;;;;;;;3.60;1.55;;;12.10;67.20;;;;;;5015292;28;20030;-72
2021/03/01 12:05:41;;;;;;;5.90;1.77;;;12.00;66.90;;;;;;5005250;28;20064;-70
2021/03/01 12:08:08;;;;;;;9.38;2.38;;;12.10;67.00;;;;;;5023767;28;20038;-70
2021/03/01 12:10:35;;;;;;;6.05;1.50;;;12.20;66.40;;;;;;5024876;28;20177;-70
2021/03/01 12:13:01;;;;;;;5.20;1.90;;;12.20;66.40;;;;;;5024632;28;20037;-71
2021/03/01 12:15:27;;;;;;;7.70;1.98;;;12.40;66.60;;;;;;5024803;28;20087;-70
2021/03/01 12:17:53;;;;;;;3.65;1.08;;;12.50;65.50;;;;;;5023966;28;20024;-70
2021/03/01 12:20:19;;;;;;;4.20;1.40;;;12.50;64.90;;;;;;5023371;28;20995;-70
2021/03/01 12:22:45;;;;;;;4.63;1.80;;;12.40;65.30;;;;;;5024073;28;20021;-70
2021/03/01 12:25:11;;;;;;;4.63;1.48;;;12.50;66.30;;;;;;5023838;28;20046;-70
2021/03/01 12:27:37;;;;;;;4.30;1.40;;;12.60;64.70;;;;;;5024164;28;20026;-70
2021/03/01 12:30:05;;;;;;;4.78;1.50;;;12.70;64.20;;;;;;5024664;28;20075;-71
2021/03/01 12:32:30;;;;;;;4.15;1.65;;;12.70;65.20;;;;;;5023757;28;20029;-71
2021/03/01 12:34:58;;;;;;;5.65;1.67;;;12.80;65.60;;;;;;5024620;28;20714;-70
2021/03/01 12:37:24;;;;;;;5.43;1.55;;;12.90;65.60;;;;;;5012728;28;20037;-70
2021/03/01 12:39:50;;;;;;;3.50;1.77;;;12.70;64.20;;;;;;5013137;28;20025;-70
2021/03/01 12:42:15;;;;;;;5.70;1.58;;;12.60;64.70;;;;;;5023938;28;20029;-70
2021/03/01 12:44:41;;;;;;;3.80;1.38;;;12.70;63.10;;;;;;5023455;28;20022;-70
2021/03/01 12:47:07;;;;;;;3.70;1.25;;;12.50;62.70;;;;;;5024147;28;20518;-70
2021/03/01 12:49:32;;;;;;;4.78;1.70;;;12.60;65.00;;;;;;5024035;28;20091;-70
2021/03/01 12:51:58;;;;;;;3.78;1.63;;;12.80;63.60;;;;;;5024462;28;20029;-70
2021/03/01 12:54:24;;;;;;;4.13;1.20;;;12.80;64.20;;;;;;5013595;28;20078;-71
2021/03/01 12:56:50;;;;;;;6.38;1.67;;;12.70;63.40;;;;;;5022773;28;20132;-71
2021/03/01 12:59:15;;;;;;;4.03;1.50;;;12.60;63.40;;;;;;5028719;28;20021;-71
2021/03/01 13:01:41;;;;;;;6.97;2.80;;;12.60;63.00;;;;;;5012092;28;20125;-71